ADDS METAR Data INFO
IDs: Format: Raw Decoded Include TAF

Data at: 2254 UTC 22 Jun 2018

KCFV 222252Z AUTO VRB03KT 10SM CLR 29/17 A2975 RMK AO2 SLP066 T02890172
KCFV 222152Z AUTO 29007KT 10SM CLR 28/17 A2978 RMK AO2 SLP078 T02780172
KCFV 222052Z AUTO 34007KT 10SM CLR 28/17 A2981 RMK AO2 SLP086 T02780172 58022
KCFV 221952Z AUTO 29005KT 10SM CLR 27/17 A2983 RMK AO2 SLP096 T02670172
KCFV 221852Z AUTO 31008KT 10SM BKN039 27/18 A2986 RMK AO2 SLP104 T02670178
KCFV 221752Z AUTO 30010KT 10SM BKN038 27/18 A2987 RMK AO2 SLP109 T02720178 10272 20189 50000
KCFV 221652Z AUTO 33006KT 10SM SCT030 BKN036 25/17 A2987 RMK AO2 SLP108 T02500172
KCFV 221626Z AUTO 31007KT 10SM BKN030 OVC037 24/17 A2988 RMK AO2 T02440172
KCFV 221600Z AUTO 33004KT 10SM BKN029 OVC037 24/17 A2988 RMK AO2 T02440172
KCFV 221552Z AUTO 32004KT 10SM OVC031 24/17 A2988 RMK AO2 SLP112 T02390172
KCFV 221522Z AUTO 34008KT 10SM FEW023 BKN031 24/17 A2988 RMK AO2 T02440172
KCFV 221452Z AUTO 35007KT 10SM BKN022 23/18 A2987 RMK AO2 SLP109 T02330178 58002
KCFV 221441Z AUTO 33008KT 10SM BKN019 BKN025 23/18 A2987 RMK AO2 T02330178
KCFV 221413Z AUTO 32009KT 10SM FEW017 SCT023 23/18 A2988 RMK AO2 T02280178
KCFV 221352Z AUTO 34009KT 10SM OVC023 22/18 A2988 RMK AO2 SLP110 T02170178
KCFV 221252Z AUTO 34005KT 10SM OVC015 20/17 A2988 RMK AO2 SLP111 T02000172
KCFV 221152Z AUTO 32009KT 10SM OVC012 19/17 A2988 RMK AO2 SLP111 T01890167 10206 20178 53019
KCFV 221116Z AUTO 30006KT 10SM BKN013 18/17 A2986 RMK AO2 T01830167
KCFV 221052Z AUTO 29005KT 10SM CLR 18/16 A2985 RMK AO2 SLP100 T01780161
KCFV 220952Z AUTO 26005KT 10SM CLR 18/16 A2983 RMK AO2 SLP094 T01780161
KCFV 220852Z AUTO 33004KT 10SM CLR 19/16 A2982 RMK AO2 SLP091 T01890161 57004
KCFV 220752Z AUTO 31004KT 10SM CLR 19/16 A2983 RMK AO2 SLP092 T01940161
KCFV 220652Z AUTO 32006KT 10SM CLR 20/16 A2983 RMK AO2 SLP094 T02000161
KCFV 220552Z AUTO 32007KT 10SM CLR 21/16 A2984 RMK AO2 SLP096 T02060161 10289 20206 403220194 50004
KCFV 220452Z AUTO 33006KT 10SM CLR 21/16 A2984 RMK AO2 SLP097 T02110156
KCFV 220352Z AUTO 33010KT 10SM FEW085 23/16 A2984 RMK AO2 SLP098 T02280156
KCFV 220252Z AUTO 34012KT 10SM BKN090 25/15 A2982 RMK AO2 SLP093 T02500150 53015
KCFV 220152Z AUTO 34009KT 10SM CLR 25/14 A2981 RMK AO2 SLP086 T02500144
KCFV 220052Z AUTO 36010KT 10SM CLR 27/14 A2979 RMK AO2 SLP081 T02720144
KCFV 212352Z AUTO 36012KT 10SM FEW090 29/14 A2978 RMK AO2 SLP077 T02940139 10322 20283 55006
KCFV 212252Z AUTO 32013KT 10SM SCT085 31/13 A2978 RMK AO2 SLP076 T03060128
KCFV 212152Z AUTO 31015KT 10SM CLR 31/13 A2978 RMK AO2 SLP078 T03060128
KCFV 212052Z AUTO 29015G21KT 10SM SCT085 31/13 A2980 RMK AO2 PK WND 27028/2006 SLP082 T03060128 56019
KCFV 211952Z AUTO 26017G23KT 10SM SCT080 30/13 A2981 RMK AO2 PK WND 29027/1923 SLP086 T03000128
KCFV 211852Z AUTO 27011G22KT 10SM FEW065 30/14 A2983 RMK AO2 PK WND 30026/1840 SLP093 T03000139
KCFV 211752Z AUTO 29018G24KT 10SM CLR 28/14 A2985 RMK AO2 SLP102 T02830139 10289 20194 58018
KCFV 211652Z AUTO 30010KT 10SM CLR 27/14 A2987 RMK AO2 SLP110 T02720144
KCFV 211552Z AUTO 32011G16KT 10SM CLR 26/15 A2990 RMK AO2 SLP118 T02610150
KCFV 211452Z AUTO 31009G18KT 10SM CLR 24/15 A2991 RMK AO2 SLP121 T02390150 50002
KCFV 211352Z AUTO 32012KT 10SM CLR 22/14 A2991 RMK AO2 SLP123 T02220144
KCFV 211252Z AUTO 31010KT 10SM CLR 21/16 A2991 RMK AO2 SLP120 T02060156
KCFV 211152Z AUTO 32008KT 10SM CLR 19/16 A2990 RMK AO2 SLP119 T01940156 10233 20194 51016